Time;durP1;ratioP1;P1;durP2;ratioP2;P2;SDS_P1;SDS_P2;PMS_P1;PMS_P2;Temp;Humidity;BMP_temperature;BMP_pressure;BME280_temperature;BME280_humidity;BME280_pressure;Samples;Min_cycle;Max_cycle;Signal;HPM_P1;HPM_P2
2021/04/05 00:01:11;;;;;;;12.30;6.77;;;6.40;99.90;;;;;;5032710;28;20475;-71
2021/04/05 00:03:37;;;;;;;10.57;5.37;;;6.50;99.90;;;;;;5046644;28;20431;-71
2021/04/05 00:06:05;;;;;;;21.10;10.70;;;6.50;99.90;;;;;;5043274;28;20458;-72
2021/04/05 00:08:32;;;;;;;5.40;3.10;;;6.50;99.90;;;;;;5028020;28;20550;-69
2021/04/05 00:10:59;;;;;;;10.80;5.97;;;6.40;99.90;;;;;;5048392;28;20459;-70
2021/04/05 00:13:28;;;;;;;13.70;10.33;;;6.40;99.90;;;;;;5031537;28;20612;-72
2021/04/05 00:15:56;;;;;;;10.53;7.13;;;6.50;99.90;;;;;;5044571;28;20469;-73
2021/04/05 00:18:24;;;;;;;19.33;9.13;;;6.50;99.90;;;;;;5040906;28;20461;-71
2021/04/05 00:20:53;;;;;;;8.67;5.10;;;6.50;99.90;;;;;;5041804;28;20446;-69
2021/04/05 00:23:20;;;;;;;8.13;6.50;;;6.50;99.90;;;;;;5048164;28;20492;-70
2021/04/05 00:25:47;;;;;;;11.10;5.33;;;6.50;99.90;;;;;;5043020;28;20994;-70
2021/04/05 00:28:14;;;;;;;10.27;6.83;;;6.40;99.90;;;;;;5023991;28;20493;-74
2021/04/05 00:30:42;;;;;;;10.20;4.63;;;6.40;99.90;;;;;;5037098;28;20438;-72
2021/04/05 00:33:09;;;;;;;7.60;6.73;;;6.40;99.90;;;;;;5044562;28;20519;-70
2021/04/05 00:35:37;;;;;;;12.60;7.37;;;6.50;99.90;;;;;;5042735;28;20452;-69
2021/04/05 00:38:05;;;;;;;10.63;6.53;;;6.40;99.90;;;;;;5042607;28;20858;-70
2021/04/05 00:40:36;;;;;;;19.50;7.50;;;6.30;99.90;;;;;;5046304;28;20869;-71
2021/04/05 00:43:05;;;;;;;10.63;8.17;;;6.50;99.90;;;;;;5042947;28;20490;-69
2021/04/05 00:45:33;;;;;;;4.60;3.93;;;6.50;99.90;;;;;;5043972;28;20486;-69
2021/04/05 00:48:00;;;;;;;11.73;6.50;;;6.40;99.90;;;;;;5043826;28;20517;-69
2021/04/05 00:50:34;;;;;;;6.33;5.70;;;6.40;99.90;;;;;;5041785;28;20904;-71
2021/04/05 00:53:03;;;;;;;5.67;3.53;;;6.40;99.90;;;;;;5044918;28;20424;-70
2021/04/05 00:55:30;;;;;;;8.77;5.97;;;6.50;99.90;;;;;;5037687;28;20464;-71
2021/04/05 00:58:00;;;;;;;10.10;6.83;;;6.50;99.90;;;;;;5041911;28;21804;-70
2021/04/05 01:00:35;;;;;;;5.87;5.30;;;6.50;99.90;;;;;;5037232;28;20449;-69
2021/04/05 01:03:02;;;;;;;8.73;5.33;;;6.50;99.90;;;;;;5043248;28;20478;-70
2021/04/05 01:05:29;;;;;;;6.83;3.77;;;6.50;99.90;;;;;;5040668;28;20464;-70
2021/04/05 01:07:56;;;;;;;25.07;8.63;;;6.50;99.90;;;;;;5043118;28;20924;-69
2021/04/05 01:10:23;;;;;;;11.13;6.90;;;6.50;99.90;;;;;;5045907;28;20505;-72
2021/04/05 01:12:50;;;;;;;19.70;5.60;;;6.50;99.90;;;;;;5050666;28;20531;-69
2021/04/05 01:15:18;;;;;;;6.83;3.90;;;6.40;99.90;;;;;;5038714;28;20546;-70
2021/04/05 01:17:46;;;;;;;13.63;9.33;;;6.40;99.90;;;;;;5042877;28;20449;-70
2021/04/05 01:20:14;;;;;;;12.93;5.90;;;6.40;99.90;;;;;;5038777;28;20493;-70
2021/04/05 01:22:42;;;;;;;6.60;4.80;;;6.50;99.90;;;;;;5038509;28;20442;-69
2021/04/05 01:25:12;;;;;;;10.93;5.80;;;6.50;99.90;;;;;;5030329;28;20460;-71
2021/04/05 01:27:39;;;;;;;8.83;3.43;;;6.40;99.90;;;;;;5037987;28;20454;-69
2021/04/05 01:30:12;;;;;;;2.70;2.20;;;6.50;99.90;;;;;;5040200;28;20473;-70
2021/04/05 01:32:39;;;;;;;23.40;4.90;;;6.40;99.90;;;;;;5045553;28;20464;-69
2021/04/05 01:35:08;;;;;;;8.33;5.43;;;6.40;99.90;;;;;;5039837;28;20433;-72
2021/04/05 01:37:35;;;;;;;7.13;6.13;;;6.30;99.90;;;;;;5037165;28;20510;-72
2021/04/05 01:40:03;;;;;;;9.23;6.53;;;6.30;99.90;;;;;;5019988;28;20540;-70
2021/04/05 01:42:29;;;;;;;9.13;6.20;;;6.30;99.90;;;;;;5044230;28;20470;-71
2021/04/05 01:44:58;;;;;;;6.00;4.60;;;6.20;99.90;;;;;;5026982;28;21150;-70
2021/04/05 01:47:25;;;;;;;6.83;5.20;;;6.20;99.90;;;;;;5046498;28;20477;-69
2021/04/05 01:49:51;;;;;;;8.43;5.93;;;6.20;99.90;;;;;;5037847;28;20430;-69
2021/04/05 01:52:18;;;;;;;16.03;6.70;;;6.30;99.90;;;;;;5027188;28;20477;-70
2021/04/05 01:54:45;;;;;;;9.00;4.50;;;6.20;99.90;;;;;;5026701;28;20494;-72
2021/04/05 01:57:12;;;;;;;19.03;7.53;;;6.20;99.90;;;;;;5043172;28;21713;-70
2021/04/05 01:59:39;;;;;;;10.83;6.27;;;6.10;99.90;;;;;;5037661;28;20557;-70
2021/04/05 02:02:06;;;;;;;12.53;7.53;;;6.10;99.90;;;;;;5042536;28;21064;-70
2021/04/05 02:04:35;;;;;;;17.07;8.23;;;6.20;99.90;;;;;;5043068;28;20475;-70
2021/04/05 02:07:03;;;;;;;5.97;3.53;;;6.20;99.90;;;;;;5045183;28;20514;-69
2021/04/05 02:09:29;;;;;;;15.47;7.97;;;6.20;99.90;;;;;;5040204;28;21015;-70
2021/04/05 02:11:57;;;;;;;8.97;6.13;;;6.10;99.90;;;;;;5029528;28;20439;-72
2021/04/05 02:14:24;;;;;;;13.20;6.00;;;6.10;99.90;;;;;;5056653;28;21004;-72
2021/04/05 02:16:51;;;;;;;14.40;5.97;;;6.20;99.90;;;;;;5039093;28;20486;-69
2021/04/05 02:19:17;;;;;;;10.90;8.00;;;6.20;99.90;;;;;;5026916;28;21019;-70
2021/04/05 02:21:47;;;;;;;11.53;5.77;;;6.20;99.90;;;;;;5044616;28;20524;-69
2021/04/05 02:24:15;;;;;;;8.97;4.80;;;6.10;99.90;;;;;;5041266;28;20550;-71
2021/04/05 02:26:45;;;;;;;9.87;5.17;;;6.10;99.90;;;;;;5040415;28;21019;-72
2021/04/05 02:29:12;;;;;;;9.50;4.43;;;6.10;99.90;;;;;;5042844;28;20568;-72
2021/04/05 02:31:44;;;;;;;14.47;7.00;;;6.20;99.90;;;;;;5045388;28;20475;-70
2021/04/05 02:34:13;;;;;;;8.37;4.33;;;6.10;99.90;;;;;;5039957;28;20551;-71
2021/04/05 02:36:41;;;;;;;16.77;9.93;;;6.10;99.90;;;;;;5046217;28;20455;-72
2021/04/05 02:39:09;;;;;;;12.80;9.37;;;6.10;99.90;;;;;;5045671;28;20493;-72
2021/04/05 02:41:39;;;;;;;17.23;6.03;;;6.10;99.90;;;;;;5045991;28;20596;-70
2021/04/05 02:44:07;;;;;;;16.83;7.10;;;6.20;99.90;;;;;;5046916;28;20543;-70
2021/04/05 02:46:36;;;;;;;7.60;2.97;;;6.20;99.90;;;;;;5043723;28;20569;-70
2021/04/05 02:49:06;;;;;;;8.50;4.40;;;6.30;99.90;;;;;;5045601;28;20864;-71
2021/04/05 02:51:33;;;;;;;11.60;8.33;;;6.30;99.90;;;;;;5047667;28;20916;-69
2021/04/05 02:54:01;;;;;;;6.70;3.73;;;6.40;99.90;;;;;;5047252;28;20979;-69
2021/04/05 02:56:29;;;;;;;8.47;6.33;;;6.50;99.90;;;;;;5044838;28;20462;-70
2021/04/05 02:58:58;;;;;;;7.87;5.07;;;6.40;99.90;;;;;;5045657;28;20522;-69
2021/04/05 03:01:26;;;;;;;11.60;7.43;;;6.40;99.90;;;;;;5039979;28;20537;-70
2021/04/05 03:03:56;;;;;;;7.83;4.83;;;6.50;99.90;;;;;;5044634;28;20418;-69
2021/04/05 03:06:25;;;;;;;13.03;5.83;;;6.60;99.90;;;;;;5046965;28;20504;-71
2021/04/05 03:08:51;;;;;;;7.60;4.80;;;6.60;99.90;;;;;;5050051;28;20551;-72
2021/04/05 03:11:20;;;;;;;8.33;6.10;;;6.60;99.90;;;;;;5043246;28;20524;-72
2021/04/05 03:13:47;;;;;;;7.40;5.10;;;6.60;99.90;;;;;;5039987;28;20475;-70
2021/04/05 03:16:17;;;;;;;7.43;5.03;;;6.70;99.90;;;;;;5051898;28;20437;-71
2021/04/05 03:18:45;;;;;;;16.33;5.90;;;6.80;99.90;;;;;;5049391;28;21050;-70
2021/04/05 03:21:13;;;;;;;19.07;4.67;;;6.80;99.90;;;;;;5048703;28;20441;-70
2021/04/05 03:23:41;;;;;;;9.50;5.47;;;6.80;99.90;;;;;;5043222;28;20496;-70
2021/04/05 03:26:08;;;;;;;15.90;6.57;;;6.90;99.90;;;;;;5047162;28;20833;-70
2021/04/05 03:28:35;;;;;;;9.73;6.60;;;6.90;99.90;;;;;;5043487;28;20442;-71
2021/04/05 03:31:06;;;;;;;10.43;6.90;;;6.80;99.90;;;;;;5042428;28;20462;-68
2021/04/05 03:33:38;;;;;;;6.20;3.57;;;6.80;99.90;;;;;;5045621;28;20439;-70
2021/04/05 03:36:09;;;;;;;14.13;5.23;;;6.90;99.90;;;;;;5047291;28;20488;-70
2021/04/05 03:38:37;;;;;;;13.20;7.57;;;6.80;99.90;;;;;;5056134;28;22227;-70
2021/04/05 03:41:09;;;;;;;13.40;6.40;;;6.90;99.90;;;;;;5049010;28;20439;-70
2021/04/05 03:43:41;;;;;;;10.90;4.87;;;6.90;99.90;;;;;;5049949;28;20447;-70
2021/04/05 03:46:16;;;;;;;10.57;6.13;;;6.90;99.90;;;;;;5050366;28;20465;-70
2021/04/05 03:48:47;;;;;;;16.20;7.77;;;6.90;99.90;;;;;;5062017;28;20428;-71
2021/04/05 03:51:22;;;;;;;7.10;4.23;;;7.00;99.90;;;;;;5059974;28;20458;-70
2021/04/05 03:53:55;;;;;;;12.87;5.33;;;7.00;99.90;;;;;;5055196;28;20418;-70
2021/04/05 03:56:26;;;;;;;11.87;6.30;;;7.00;99.90;;;;;;5056072;28;20444;-72
2021/04/05 03:58:57;;;;;;;5.97;4.47;;;7.00;99.90;;;;;;5056049;28;20493;-71
2021/04/05 04:01:27;;;;;;;8.33;7.50;;;7.00;99.90;;;;;;5058584;28;20422;-70
2021/04/05 04:04:00;;;;;;;11.87;6.03;;;7.00;99.90;;;;;;5050756;28;20441;-71
2021/04/05 04:06:32;;;;;;;11.00;7.20;;;7.00;99.90;;;;;;5054936;28;20439;-71
2021/04/05 04:09:01;;;;;;;11.30;6.57;;;7.10;99.90;;;;;;5049543;28;20464;-70
2021/04/05 04:11:30;;;;;;;26.40;5.93;;;7.00;99.90;;;;;;5058381;28;20452;-70
2021/04/05 04:14:00;;;;;;;23.97;7.23;;;7.00;99.90;;;;;;5050363;28;20466;-71
2021/04/05 04:16:29;;;;;;;11.40;6.67;;;6.90;99.90;;;;;;5046476;28;20516;-70
2021/04/05 04:18:57;;;;;;;12.03;6.57;;;7.10;99.90;;;;;;5052094;28;20469;-70
2021/04/05 04:21:24;;;;;;;17.77;7.53;;;7.10;99.90;;;;;;5055535;28;20438;-71
2021/04/05 04:23:51;;;;;;;25.30;6.93;;;7.10;99.90;;;;;;5058759;28;20431;-71
2021/04/05 04:26:17;;;;;;;7.60;6.33;;;7.10;99.90;;;;;;5047673;28;20455;-72
2021/04/05 04:28:46;;;;;;;14.30;7.97;;;7.10;99.90;;;;;;5044688;28;20441;-70
2021/04/05 04:31:13;;;;;;;17.37;8.30;;;7.10;99.90;;;;;;5044263;28;20472;-69
2021/04/05 04:33:40;;;;;;;15.03;5.87;;;7.20;99.90;;;;;;5043195;28;20488;-72
2021/04/05 04:36:07;;;;;;;9.83;5.63;;;7.10;99.90;;;;;;5032813;28;20466;-71
2021/04/05 04:38:35;;;;;;;13.47;7.63;;;7.10;99.90;;;;;;5041664;28;20536;-70
2021/04/05 04:41:01;;;;;;;13.70;6.83;;;7.20;99.90;;;;;;5042938;28;20556;-71
2021/04/05 04:43:28;;;;;;;17.93;6.77;;;7.30;99.90;;;;;;5048348;28;21551;-71
2021/04/05 04:45:55;;;;;;;8.73;6.37;;;7.30;99.90;;;;;;5031147;28;20495;-72
2021/04/05 04:48:22;;;;;;;8.53;5.30;;;7.40;99.90;;;;;;5046681;28;20484;-70
2021/04/05 04:50:49;;;;;;;8.83;6.23;;;7.30;99.90;;;;;;5043244;28;20849;-71
2021/04/05 04:53:15;;;;;;;5.77;4.63;;;7.30;99.90;;;;;;5022121;28;20524;-71
2021/04/05 04:55:43;;;;;;;13.23;7.93;;;7.30;99.90;;;;;;5030648;28;20564;-71
2021/04/05 04:58:10;;;;;;;22.33;7.60;;;7.30;99.90;;;;;;5024238;28;20565;-71
2021/04/05 05:00:36;;;;;;;15.00;4.90;;;7.40;99.90;;;;;;5030872;28;20450;-70
2021/04/05 05:03:06;;;;;;;10.07;6.70;;;7.50;99.90;;;;;;5046892;28;20896;-69
2021/04/05 05:05:34;;;;;;;8.87;5.40;;;7.40;99.90;;;;;;5040602;28;20531;-70
2021/04/05 05:08:01;;;;;;;10.83;6.20;;;7.40;99.90;;;;;;5041946;28;20577;-69
2021/04/05 05:10:28;;;;;;;16.40;9.60;;;7.40;99.90;;;;;;5041835;28;20561;-71
2021/04/05 05:12:55;;;;;;;8.97;4.00;;;7.40;99.90;;;;;;5040867;28;27448;-72
2021/04/05 05:15:23;;;;;;;36.90;8.57;;;7.40;99.90;;;;;;5045007;28;20454;-71
2021/04/05 05:17:49;;;;;;;14.07;7.60;;;7.40;99.90;;;;;;5041652;28;20507;-70
2021/04/05 05:20:18;;;;;;;23.40;8.70;;;7.30;99.90;;;;;;5043692;28;20569;-69
2021/04/05 05:22:47;;;;;;;31.37;10.90;;;7.40;99.90;;;;;;5042602;28;20467;-70
2021/04/05 05:25:18;;;;;;;16.03;9.07;;;7.30;99.90;;;;;;5037605;28;20462;-69
2021/04/05 05:27:50;;;;;;;16.27;5.60;;;7.40;99.90;;;;;;5039964;28;21048;-70
2021/04/05 05:30:20;;;;;;;15.17;7.53;;;7.30;99.90;;;;;;5042967;28;20656;-70
2021/04/05 05:32:49;;;;;;;13.63;6.50;;;7.30;99.90;;;;;;5047718;28;20463;-69
2021/04/05 05:35:17;;;;;;;14.47;7.50;;;7.30;99.90;;;;;;5041847;28;20829;-72
2021/04/05 05:37:44;;;;;;;9.57;6.43;;;7.40;99.90;;;;;;5039735;28;20968;-68
2021/04/05 05:40:15;;;;;;;22.40;9.43;;;7.40;99.90;;;;;;5036405;28;20955;-71
2021/04/05 05:42:57;;;;;;;25.77;10.63;;;7.40;99.90;;;;;;5045828;28;20472;-69
2021/04/05 05:45:29;;;;;;;17.40;7.40;;;7.40;99.90;;;;;;5043938;28;20837;-72
2021/04/05 05:48:00;;;;;;;22.40;9.33;;;7.40;99.90;;;;;;5036768;28;20527;-71
2021/04/05 05:50:38;;;;;;;14.30;8.00;;;7.30;99.90;;;;;;5037529;28;20455;-70
2021/04/05 05:53:19;;;;;;;13.17;8.40;;;7.30;99.90;;;;;;5044716;28;20483;-70
2021/04/05 05:56:16;;;;;;;6.27;4.70;;;7.40;99.90;;;;;;5044942;28;20562;-70
2021/04/05 05:58:50;;;;;;;20.57;7.10;;;7.30;99.90;;;;;;5042461;28;20578;-72
2021/04/05 06:01:25;;;;;;;14.67;7.10;;;7.30;99.90;;;;;;5041344;28;20712;-72
2021/04/05 06:03:58;;;;;;;9.40;6.60;;;7.30;99.90;;;;;;5047222;28;20470;-70
2021/04/05 06:06:40;;;;;;;17.60;6.90;;;7.20;99.90;;;;;;5034984;28;20447;-72
2021/04/05 06:09:18;;;;;;;12.20;6.73;;;7.20;99.90;;;;;;5041296;28;20479;-69
2021/04/05 06:11:56;;;;;;;16.90;9.93;;;7.20;99.90;;;;;;5042928;28;20475;-70
2021/04/05 06:14:44;;;;;;;12.83;8.30;;;7.20;99.90;;;;;;5040428;28;20958;-70
2021/04/05 06:17:20;;;;;;;24.03;7.53;;;7.20;99.90;;;;;;5043172;28;20499;-71
2021/04/05 06:19:50;;;;;;;10.23;8.47;;;7.20;99.90;;;;;;5042629;28;26723;-70
2021/04/05 06:22:29;;;;;;;16.17;8.93;;;7.10;99.90;;;;;;5048675;28;20824;-70
2021/04/05 06:25:04;;;;;;;17.10;9.67;;;7.10;99.90;;;;;;5047588;28;20579;-69
2021/04/05 06:27:40;;;;;;;6.33;4.27;;;7.00;99.90;;;;;;5046754;28;20479;-72
2021/04/05 06:30:16;;;;;;;5.97;5.37;;;7.00;99.90;;;;;;5046795;28;20870;-70
2021/04/05 06:32:55;;;;;;;11.00;6.00;;;7.00;99.90;;;;;;5053923;28;20491;-69
2021/04/05 06:35:52;;;;;;;8.67;6.43;;;7.00;99.90;;;;;;5054953;28;20505;-72
2021/04/05 06:38:25;;;;;;;14.67;7.23;;;7.00;99.90;;;;;;5049061;28;20579;-70
2021/04/05 06:40:55;;;;;;;10.27;7.33;;;7.10;99.90;;;;;;5049913;28;20446;-69
2021/04/05 06:44:00;;;;;;;15.03;6.40;;;7.20;99.90;;;;;;5047735;28;20466;-69
2021/04/05 06:46:48;;;;;;;10.40;7.30;;;7.30;99.90;;;;;;5048649;28;20471;-70
2021/04/05 06:49:41;;;;;;;14.03;7.70;;;7.20;99.90;;;;;;5049531;28;20449;-68
2021/04/05 06:52:31;;;;;;;14.23;6.10;;;7.10;99.90;;;;;;5045869;28;20455;-70
2021/04/05 06:55:33;;;;;;;14.90;9.07;;;7.10;99.90;;;;;;5038084;28;20554;-69
2021/04/05 06:58:28;;;;;;;16.63;7.00;;;7.10;99.90;;;;;;5037929;28;20448;-71
2021/04/05 07:01:12;;;;;;;13.83;3.37;;;7.20;99.90;;;;;;5039417;28;20568;-69
2021/04/05 07:04:09;;;;;;;13.37;8.83;;;7.30;99.90;;;;;;5038836;28;20458;-69
2021/04/05 07:06:47;;;;;;;14.77;10.10;;;7.30;99.90;;;;;;5044287;28;20442;-71
2021/04/05 07:09:24;;;;;;;17.43;9.90;;;7.40;99.90;;;;;;5040867;28;20470;-70
2021/04/05 07:12:12;;;;;;;12.13;7.07;;;7.20;99.90;;;;;;5048259;28;20445;-71
2021/04/05 07:14:47;;;;;;;23.80;11.30;;;7.20;99.90;;;;;;5042617;28;20421;-70
2021/04/05 07:17:20;;;;;;;11.50;6.47;;;7.20;99.90;;;;;;5041189;28;20554;-68
2021/04/05 07:20:01;;;;;;;11.67;7.67;;;7.20;99.90;;;;;;5047285;28;20633;-69
2021/04/05 07:23:10;;;;;;;13.20;8.13;;;7.10;99.90;;;;;;5037912;28;20486;-69
2021/04/05 07:25:49;;;;;;;5.53;1.43;;;7.10;99.90;;;;;;5024248;28;20537;-70
2021/04/05 07:28:23;;;;;;;5.40;2.67;;;6.20;99.90;;;;;;5045298;28;20617;-69
2021/04/05 07:31:02;;;;;;;4.90;2.07;;;5.40;99.90;;;;;;5040368;28;20659;-71
2021/04/05 07:33:36;;;;;;;3.90;1.40;;;5.10;99.90;;;;;;5045156;28;21184;-69
2021/04/05 07:36:10;;;;;;;2.50;1.17;;;5.00;99.90;;;;;;5044209;28;20863;-68
2021/04/05 07:38:44;;;;;;;1.90;1.30;;;5.00;99.90;;;;;;5046162;28;20485;-70
2021/04/05 07:41:20;;;;;;;1.07;0.90;;;4.90;99.90;;;;;;5041581;28;20563;-68
2021/04/05 07:44:17;;;;;;;2.40;1.47;;;5.00;99.90;;;;;;5045724;28;20450;-69
2021/04/05 07:46:55;;;;;;;3.87;1.70;;;5.00;99.90;;;;;;5041011;28;20450;-69
2021/04/05 07:49:25;;;;;;;1.50;1.30;;;5.10;99.90;;;;;;5042337;28;21041;-68
2021/04/05 07:51:56;;;;;;;1.43;1.20;;;5.20;99.90;;;;;;5057155;28;20439;-70
2021/04/05 07:54:26;;;;;;;2.40;1.77;;;5.10;99.90;;;;;;5047869;28;20455;-69
2021/04/05 07:57:07;;;;;;;1.00;0.90;;;5.10;99.90;;;;;;5046126;28;20497;-70
2021/04/05 07:59:49;;;;;;;0.90;0.80;;;5.10;99.90;;;;;;5045577;28;20996;-70
2021/04/05 08:02:37;;;;;;;1.17;1.07;;;5.10;99.90;;;;;;5048711;28;20422;-69
2021/04/05 08:05:16;;;;;;;1.30;0.87;;;5.10;99.90;;;;;;5042439;28;20410;-69
2021/04/05 08:07:59;;;;;;;2.13;1.17;;;5.00;99.90;;;;;;5044738;28;20479;-68
2021/04/05 08:10:33;;;;;;;2.90;1.80;;;4.90;99.90;;;;;;5045351;28;20430;-69
2021/04/05 08:13:12;;;;;;;5.13;1.50;;;5.20;99.90;;;;;;5046515;28;20446;-70
2021/04/05 08:15:58;;;;;;;1.00;0.80;;;5.20;99.90;;;;;;5044433;28;20440;-69
2021/04/05 08:18:30;;;;;;;0.90;0.70;;;5.10;99.90;;;;;;5043887;28;20457;-69
2021/04/05 08:21:04;;;;;;;1.00;0.70;;;5.10;99.90;;;;;;5047289;28;20529;-69
2021/04/05 08:23:44;;;;;;;1.70;1.07;;;5.20;99.90;;;;;;5032995;28;20436;-71
2021/04/05 08:26:22;;;;;;;0.93;0.70;;;5.30;99.90;;;;;;5038822;28;20828;-70
2021/04/05 08:29:00;;;;;;;1.93;1.03;;;5.40;99.90;;;;;;5037799;28;20450;-69
2021/04/05 08:31:47;;;;;;;1.30;1.03;;;5.40;99.90;;;;;;5039134;28;20476;-70
2021/04/05 08:34:25;;;;;;;2.10;1.23;;;5.40;99.90;;;;;;5044095;28;20433;-69
2021/04/05 08:37:03;;;;;;;1.43;1.33;;;5.50;99.90;;;;;;5041947;28;20440;-69
2021/04/05 08:39:38;;;;;;;1.20;1.10;;;5.60;99.90;;;;;;5040009;28;20483;-69
2021/04/05 08:42:13;;;;;;;1.30;0.97;;;5.70;99.90;;;;;;5045124;28;20797;-70
2021/04/05 08:44:50;;;;;;;1.77;1.33;;;5.70;99.90;;;;;;5045450;28;20453;-71
2021/04/05 08:47:25;;;;;;;2.40;1.10;;;5.70;99.90;;;;;;5044818;28;20440;-70
2021/04/05 08:49:56;;;;;;;1.00;0.90;;;5.50;99.90;;;;;;5043434;28;20496;-69
2021/04/05 08:52:27;;;;;;;3.23;0.90;;;5.30;99.90;;;;;;5042136;28;20414;-69
2021/04/05 08:54:55;;;;;;;0.90;0.77;;;5.40;99.90;;;;;;5038308;28;20457;-69
2021/04/05 08:57:25;;;;;;;1.40;0.87;;;5.30;99.90;;;;;;5038420;28;20498;-70
2021/04/05 08:59:56;;;;;;;1.73;0.90;;;5.20;99.90;;;;;;5039909;28;20977;-69
2021/04/05 09:02:35;;;;;;;1.20;0.80;;;5.30;99.90;;;;;;5039820;28;20450;-69
2021/04/05 09:05:06;;;;;;;1.20;0.97;;;4.80;99.90;;;;;;5042891;28;21033;-69
2021/04/05 09:07:48;;;;;;;1.23;0.90;;;4.40;99.90;;;;;;5033162;28;20460;-70
2021/04/05 09:10:21;;;;;;;1.37;1.27;;;4.20;99.90;;;;;;5030751;28;20575;-71
2021/04/05 09:12:49;;;;;;;1.57;1.30;;;4.20;99.90;;;;;;5032122;28;20429;-70
2021/04/05 09:15:49;;;;;;;1.20;0.73;;;4.30;99.90;;;;;;5035226;28;20487;-72
2021/04/05 09:18:51;;;;;;;1.93;1.10;;;4.30;99.90;;;;;;5037233;28;20475;-70
2021/04/05 09:21:34;;;;;;;2.70;2.10;;;4.40;99.90;;;;;;5008546;28;20629;-70
2021/04/05 09:24:25;;;;;;;1.43;0.87;;;4.30;99.90;;;;;;5030695;28;20874;-69
2021/04/05 09:27:36;;;;;;;2.10;1.70;;;4.40;99.90;;;;;;5036496;28;20429;-69
2021/04/05 09:30:28;;;;;;;1.77;1.30;;;4.50;99.90;;;;;;5008721;28;20466;-69
2021/04/05 09:33:21;;;;;;;2.20;1.17;;;4.50;99.90;;;;;;5038286;28;20462;-70
2021/04/05 09:36:04;;;;;;;5.33;1.77;;;4.50;99.90;;;;;;5034170;28;20528;-69
2021/04/05 09:38:59;;;;;;;1.10;1.00;;;4.80;99.90;;;;;;5036240;28;20485;-69
2021/04/05 09:41:54;;;;;;;0.90;0.70;;;4.90;99.90;;;;;;4998185;28;20543;-70
2021/04/05 09:44:52;;;;;;;2.63;1.90;;;5.00;99.90;;;;;;5036706;28;20437;-70
2021/04/05 09:47:44;;;;;;;2.13;0.90;;;5.10;99.90;;;;;;5040573;28;20523;-71
2021/04/05 09:50:25;;;;;;;3.63;1.53;;;5.30;99.90;;;;;;5033790;28;22450;-69
2021/04/05 09:53:28;;;;;;;2.73;1.57;;;5.70;99.90;;;;;;5040764;28;20803;-69
2021/04/05 09:56:00;;;;;;;1.70;0.93;;;5.90;99.90;;;;;;5036883;28;20472;-70
2021/04/05 09:58:30;;;;;;;1.77;1.20;;;5.90;99.90;;;;;;5048005;28;20505;-71
2021/04/05 10:01:02;;;;;;;13.73;1.43;;;6.00;99.90;;;;;;5045166;28;21019;-69
2021/04/05 10:03:30;;;;;;;3.30;2.33;;;5.90;99.90;;;;;;5049319;28;20439;-69
2021/04/05 10:05:58;;;;;;;2.20;0.80;;;5.80;99.90;;;;;;5045887;28;20951;-68
2021/04/05 10:08:27;;;;;;;1.30;1.10;;;5.30;99.90;;;;;;5040740;28;20480;-70
2021/04/05 10:10:56;;;;;;;1.30;1.20;;;5.00;99.90;;;;;;5053423;28;20433;-70
2021/04/05 10:13:25;;;;;;;1.00;0.80;;;5.00;99.90;;;;;;5058641;28;20485;-69
2021/04/05 10:15:52;;;;;;;7.33;1.33;;;5.00;99.90;;;;;;5054901;28;20442;-69
2021/04/05 10:18:20;;;;;;;1.90;0.90;;;4.90;99.90;;;;;;5051299;28;20511;-69
2021/04/05 10:20:49;;;;;;;1.10;0.80;;;4.50;99.90;;;;;;5043675;28;20573;-70
2021/04/05 10:23:21;;;;;;;1.67;0.90;;;4.20;99.90;;;;;;5044512;28;20455;-70
2021/04/05 10:25:54;;;;;;;1.23;1.13;;;4.10;99.90;;;;;;5047676;28;20422;-69
2021/04/05 10:28:22;;;;;;;0.90;0.70;;;4.10;99.90;;;;;;5043441;28;20503;-69
2021/04/05 10:30:55;;;;;;;0.90;0.70;;;4.10;99.90;;;;;;5044818;28;20418;-71
2021/04/05 10:33:28;;;;;;;1.77;1.67;;;4.30;99.90;;;;;;5043401;28;20413;-69
2021/04/05 10:36:00;;;;;;;0.90;0.70;;;4.30;99.90;;;;;;5042918;28;20448;-69
2021/04/05 10:38:29;;;;;;;1.73;1.63;;;4.40;99.90;;;;;;5043563;28;20498;-70
2021/04/05 10:40:57;;;;;;;1.87;1.17;;;4.40;99.90;;;;;;5046238;28;20463;-70
2021/04/05 10:43:27;;;;;;;1.00;0.77;;;4.10;99.90;;;;;;5045306;28;20440;-68
2021/04/05 10:45:57;;;;;;;0.90;0.70;;;4.10;99.90;;;;;;5038759;28;20467;-67
2021/04/05 10:48:37;;;;;;;1.77;1.10;;;3.80;99.90;;;;;;5033790;28;20477;-69
2021/04/05 10:51:07;;;;;;;0.90;0.70;;;3.80;99.90;;;;;;5047259;28;21091;-68
2021/04/05 10:53:39;;;;;;;0.90;0.60;;;4.00;99.90;;;;;;5042686;28;20465;-70
2021/04/05 10:56:10;;;;;;;1.03;0.93;;;4.20;99.90;;;;;;5041691;28;20454;-69
2021/04/05 10:58:45;;;;;;;0.90;0.70;;;4.20;99.90;;;;;;5040982;28;20482;-69
2021/04/05 11:01:13;;;;;;;0.90;0.70;;;4.30;99.90;;;;;;5040860;28;20450;-69
2021/04/05 11:03:44;;;;;;;5.00;0.80;;;4.60;99.90;;;;;;5051610;28;20455;-69
2021/04/05 11:06:14;;;;;;;0.90;0.70;;;4.80;99.90;;;;;;5053838;28;20456;-68
2021/04/05 11:08:43;;;;;;;1.40;0.80;;;5.00;99.90;;;;;;5052622;28;21017;-69
2021/04/05 11:11:13;;;;;;;1.07;0.77;;;4.90;99.90;;;;;;5058518;28;20940;-68
2021/04/05 11:13:43;;;;;;;1.13;0.90;;;5.10;99.90;;;;;;5053930;28;20942;-69
2021/04/05 11:16:12;;;;;;;0.90;0.60;;;5.40;99.90;;;;;;5060894;28;20456;-70
2021/04/05 11:18:47;;;;;;;0.90;0.70;;;5.50;99.90;;;;;;5046248;28;20472;-70
2021/04/05 11:21:16;;;;;;;1.20;1.10;;;5.10;99.90;;;;;;5047365;28;20851;-71
2021/04/05 11:23:43;;;;;;;1.30;0.90;;;5.00;99.90;;;;;;5041130;28;20458;-70
2021/04/05 11:26:12;;;;;;;1.17;1.07;;;4.90;99.90;;;;;;5050431;28;20819;-69
2021/04/05 11:28:41;;;;;;;1.20;1.07;;;5.20;99.90;;;;;;5054117;28;20461;-69
2021/04/05 11:31:11;;;;;;;8.10;1.33;;;5.10;99.90;;;;;;5045783;28;20432;-70
2021/04/05 11:33:47;;;;;;;4.97;1.50;;;5.00;99.90;;;;;;5044966;28;20821;-69
2021/04/05 11:36:14;;;;;;;1.20;1.10;;;4.70;99.90;;;;;;5049692;28;20487;-70
2021/04/05 11:38:46;;;;;;;1.10;1.00;;;4.40;99.90;;;;;;5045526;28;20488;-70
2021/04/05 11:41:17;;;;;;;4.63;0.97;;;4.50;99.90;;;;;;5045646;28;20566;-70
2021/04/05 11:43:49;;;;;;;3.67;1.23;;;4.70;99.90;;;;;;5043750;28;20422;-70
2021/04/05 11:46:18;;;;;;;2.43;1.73;;;4.90;99.90;;;;;;5036298;28;20471;-71
2021/04/05 11:49:00;;;;;;;1.00;0.80;;;5.20;99.90;;;;;;5033791;28;20720;-72
2021/04/05 11:51:31;;;;;;;1.00;0.80;;;5.20;99.90;;;;;;5039667;28;20890;-70
2021/04/05 11:54:01;;;;;;;0.90;0.60;;;5.00;99.90;;;;;;5033962;28;20513;-71
2021/04/05 11:56:32;;;;;;;1.43;1.20;;;5.00;99.90;;;;;;5035770;28;20461;-70
2021/04/05 11:59:03;;;;;;;0.90;0.70;;;5.00;99.90;;;;;;5035559;28;21613;-70
2021/04/05 12:01:37;;;;;;;1.03;0.90;;;4.90;99.90;;;;;;5032522;28;20492;-71
2021/04/05 12:04:14;;;;;;;1.83;1.07;;;4.70;99.90;;;;;;5052419;28;20442;-71
2021/04/05 12:06:44;;;;;;;1.90;1.20;;;4.90;99.90;;;;;;5036889;28;20582;-71
2021/04/05 12:09:16;;;;;;;1.00;0.73;;;5.50;99.90;;;;;;5031922;28;20450;-70
2021/04/05 12:11:48;;;;;;;1.50;0.93;;;6.60;99.90;;;;;;5037012;28;20476;-70
2021/04/05 12:14:20;;;;;;;1.83;1.10;;;7.60;99.90;;;;;;5029850;28;20549;-71
2021/04/05 12:16:51;;;;;;;2.30;1.97;;;7.60;99.90;;;;;;5032981;28;20550;-70
2021/04/05 12:19:23;;;;;;;3.20;1.30;;;8.10;99.90;;;;;;5029842;28;20434;-71
2021/04/05 12:21:52;;;;;;;1.47;1.07;;;8.90;99.90;;;;;;5026507;28;20475;-69
2021/04/05 12:24:27;;;;;;;3.67;1.10;;;9.10;99.90;;;;;;5025399;28;21172;-70
2021/04/05 12:27:00;;;;;;;2.93;1.60;;;8.70;99.90;;;;;;5030073;28;20437;-69
2021/04/05 12:29:28;;;;;;;1.10;1.00;;;7.60;99.90;;;;;;5042504;28;20492;-70
2021/04/05 12:31:57;;;;;;;1.30;1.20;;;6.70;99.90;;;;;;5049439;28;21013;-70
2021/04/05 12:34:29;;;;;;;1.10;0.90;;;6.50;99.90;;;;;;5043065;28;20441;-69
2021/04/05 12:36:58;;;;;;;1.30;0.80;;;6.30;99.90;;;;;;5047595;28;20812;-68
2021/04/05 12:39:30;;;;;;;0.90;0.70;;;5.70;99.90;;;;;;5040063;28;20454;-70
2021/04/05 12:41:59;;;;;;;1.00;0.80;;;4.70;99.90;;;;;;5039860;28;20456;-70
2021/04/05 12:44:28;;;;;;;4.30;1.00;;;4.20;99.90;;;;;;5033683;28;21015;-69
2021/04/05 12:46:56;;;;;;;0.90;0.70;;;4.10;99.90;;;;;;5039105;28;20466;-71
2021/04/05 12:49:25;;;;;;;1.00;0.70;;;4.10;99.90;;;;;;5040868;28;20492;-71
2021/04/05 12:51:55;;;;;;;4.03;1.03;;;4.30;99.90;;;;;;5047393;28;20451;-71
2021/04/05 12:54:22;;;;;;;0.90;0.60;;;4.40;99.90;;;;;;5037876;28;20456;-71
2021/04/05 12:56:52;;;;;;;1.40;1.30;;;4.60;99.90;;;;;;5038153;28;20994;-70
2021/04/05 12:59:24;;;;;;;0.90;0.70;;;5.30;99.90;;;;;;5028363;28;20985;-71
2021/04/05 13:01:56;;;;;;;1.20;1.10;;;6.40;99.90;;;;;;5035618;28;20428;-70
2021/04/05 13:04:27;;;;;;;1.50;1.10;;;7.40;99.90;;;;;;5031047;28;21024;-71
2021/04/05 13:06:59;;;;;;;1.00;0.70;;;8.70;99.90;;;;;;5036928;28;20524;-70
2021/04/05 13:09:32;;;;;;;1.77;0.80;;;9.90;98.40;;;;;;5037353;28;20487;-69
2021/04/05 13:12:02;;;;;;;1.90;1.13;;;9.40;97.10;;;;;;5045120;28;20441;-70
2021/04/05 13:14:39;;;;;;;1.63;0.90;;;8.90;98.70;;;;;;5043554;28;20855;-70
2021/04/05 13:17:11;;;;;;;2.87;1.33;;;8.60;99.90;;;;;;5045619;28;20553;-71
2021/04/05 13:19:45;;;;;;;1.77;0.90;;;7.50;99.90;;;;;;5027591;28;20542;-71
2021/04/05 13:22:14;;;;;;;5.30;0.90;;;6.70;99.90;;;;;;5032218;28;20440;-71